createdAt,value
2023-01-20T00:02:23.792Z,-0.27
2023-01-20T00:12:32.161Z,-0.25
2023-01-20T00:22:43.142Z,-0.31
2023-01-20T00:32:50.792Z,-0.43
2023-01-20T00:42:58.386Z,-0.59
2023-01-20T00:53:05.570Z,-0.68
2023-01-20T01:03:12.858Z,-0.67
2023-01-20T01:13:20.118Z,-0.70
2023-01-20T01:23:27.162Z,-0.71
2023-01-20T01:33:35.291Z,-0.88
2023-01-20T01:43:57.334Z,-1.21
2023-01-20T01:54:07.993Z,-1.52
2023-01-20T02:04:17.527Z,-1.73
2023-01-20T02:14:28.700Z,-1.83
2023-01-20T02:35:02.447Z,-1.84
2023-01-20T02:45:14.656Z,-2.07
2023-01-20T02:55:19.808Z,-2.35
2023-01-20T03:05:30.713Z,-2.60
2023-01-20T03:15:44.821Z,-2.76
2023-01-20T03:25:53.171Z,-2.74
2023-01-20T03:36:00.932Z,-2.62
2023-01-20T03:46:06.538Z,-2.65
2023-01-20T03:56:12.286Z,-2.65
2023-01-20T04:06:22.715Z,-2.84
2023-01-20T04:16:30.298Z,-3.08
2023-01-20T04:26:37.465Z,-3.27
2023-01-20T04:36:45.238Z,-3.44
2023-01-20T04:46:51.324Z,-3.40
2023-01-20T04:56:58.607Z,-3.30
2023-01-20T05:07:05.735Z,-3.32
2023-01-20T05:17:13.079Z,-3.42
2023-01-20T05:27:20.370Z,-3.56
2023-01-20T05:37:27.500Z,-3.75
2023-01-20T05:47:34.655Z,-3.94
2023-01-20T05:57:41.957Z,-3.88
2023-01-20T06:07:49.958Z,-3.74
2023-01-20T06:17:58.123Z,-3.60
2023-01-20T06:28:04.807Z,-3.65
2023-01-20T06:38:11.885Z,-3.78
2023-01-20T06:48:19.203Z,-3.94
2023-01-20T06:58:24.378Z,-4.00
2023-01-20T07:08:31.786Z,-3.99
2023-01-20T07:18:39.160Z,-3.86
2023-01-20T07:28:46.996Z,-3.64
2023-01-20T07:38:55.197Z,-3.50
2023-01-20T07:49:02.499Z,-3.53
2023-01-20T07:59:11.520Z,-3.32
2023-01-20T08:09:17.467Z,-2.76
2023-01-20T08:19:24.734Z,-1.46
2023-01-20T08:29:33.892Z,-0.44
2023-01-20T08:39:41.129Z,-0.18
2023-01-20T08:49:48.380Z,-0.00
2023-01-20T08:59:55.748Z,-0.07
2023-01-20T09:10:03.181Z,-0.57
2023-01-20T09:20:12.395Z,-0.82
2023-01-20T09:30:18.837Z,-0.67
2023-01-20T09:40:41.600Z,-0.42
2023-01-20T09:51:04.517Z,-0.28
2023-01-20T10:01:11.127Z,-0.20
2023-01-20T10:11:22.168Z,-0.19
2023-01-20T10:21:29.652Z,-0.12
2023-01-20T10:31:40.158Z,0.05
2023-01-20T10:41:52.273Z,0.34
2023-01-20T10:52:00.106Z,0.34
2023-01-20T11:02:19.414Z,0.32
2023-01-20T11:12:30.318Z,0.12
2023-01-20T11:22:39.339Z,0.18
2023-01-20T11:32:47.164Z,0.25
2023-01-20T11:42:56.110Z,0.21
2023-01-20T11:53:13.107Z,0.33
2023-01-20T12:03:34.890Z,0.35
2023-01-20T12:13:56.504Z,0.32
2023-01-20T12:24:11.776Z,0.37
2023-01-20T12:34:18.846Z,0.36
2023-01-20T12:54:52.595Z,0.47
2023-01-20T13:05:20.198Z,0.27
2023-01-20T13:15:31.489Z,0.19
2023-01-20T13:25:40.978Z,0.11
2023-01-20T13:35:50.926Z,0.07
2023-01-20T13:46:21.512Z,0.03
2023-01-20T13:56:30.654Z,-0.07
2023-01-20T14:06:46.091Z,-0.13
2023-01-20T14:16:54.093Z,-0.14
2023-01-20T14:27:18.760Z,-0.09
2023-01-20T14:37:26.027Z,-0.01
2023-01-20T14:47:35.545Z,-0.11
2023-01-20T14:57:44.806Z,-0.22
2023-01-20T15:08:04.646Z,-0.31
2023-01-20T15:18:28.262Z,-0.32
2023-01-20T15:28:38.080Z,-0.24
2023-01-20T15:38:45.735Z,-0.16
2023-01-20T15:48:53.297Z,-0.20
2023-01-20T15:59:00.992Z,-0.30
2023-01-20T16:09:13.908Z,-0.30
2023-01-20T16:19:21.290Z,-0.27
2023-01-20T16:29:27.386Z,-0.29
2023-01-20T16:39:34.781Z,-0.35
2023-01-20T16:49:42.601Z,-0.31
2023-01-20T16:59:49.271Z,-0.28
2023-01-20T17:09:57.772Z,-0.29
2023-01-20T17:20:06.627Z,-0.29
2023-01-20T17:30:13.671Z,-0.33
2023-01-20T17:40:21.148Z,-0.36
2023-01-20T17:50:29.556Z,-0.45
2023-01-20T18:00:37.222Z,-0.50
2023-01-20T18:10:44.399Z,-0.51
2023-01-20T18:20:52.024Z,-0.50
2023-01-20T18:31:00.945Z,-0.53
2023-01-20T18:41:08.376Z,-0.54
2023-01-20T18:51:17.804Z,-0.55
2023-01-20T19:01:27.952Z,-0.54
2023-01-20T19:11:38.697Z,-0.53
2023-01-20T19:21:43.448Z,-0.54
2023-01-20T19:31:52.239Z,-0.60
2023-01-20T19:42:00.428Z,-0.66
2023-01-20T19:52:06.916Z,-0.72
2023-01-20T20:02:14.159Z,-0.78
2023-01-20T20:12:21.434Z,-0.83
2023-01-20T20:22:28.652Z,-0.83
2023-01-20T20:32:35.878Z,-0.81
2023-01-20T20:42:43.250Z,-0.79
2023-01-20T20:52:50.929Z,-0.80
2023-01-20T21:02:57.400Z,-0.80
2023-01-20T21:13:08.435Z,-0.82
2023-01-20T21:23:15.517Z,-0.85
2023-01-20T21:33:22.836Z,-0.86
2023-01-20T21:43:45.519Z,-0.86
2023-01-20T21:53:52.321Z,-0.84
2023-01-20T22:03:59.528Z,-0.81
2023-01-20T22:14:07.306Z,-0.77
2023-01-20T22:24:14.545Z,-0.76
2023-01-20T22:34:22.360Z,-0.72
2023-01-20T22:44:29.524Z,-0.67
2023-01-20T22:54:36.482Z,-0.64
2023-01-20T23:04:43.584Z,-0.57
2023-01-20T23:15:02.993Z,-0.54
2023-01-20T23:25:08.822Z,-0.53
2023-01-20T23:35:15.867Z,-0.53
2023-01-20T23:45:23.042Z,-0.51
2023-01-20T23:55:30.424Z,-0.50
